Terminal Aerodrome Forecast
Issued by NWS

Home | Current Version | Previous Version | Graphics & Text | Print | Product List | Glossary On
Versions: 1 2 3 4 5 6 7 8 9 10 11 12 13 14 15 16 17 18
531
FTUS43 KUNR 271720
TAFGCC
TAF
KGCC 271720Z 2718/2818 16012KT P6SM SKC
     FM280200 11010KT P6SM BKN060
     FM280800 35008KT 3SM -RA BR OVC005
     FM281500 35016KT 2SM -RASN BR OVC005=

USA.gov is the U.S. government's official web portal to all federal, state and local government web resources and services.